Pilot No. 4 — WDA5463 — position and weather

sailwx.info

Track history (hours):
 
Tides and Currents Weather Stations Pressure Air Temp Water Temp Dewpoint Dewpoint Depression Visibility Wind Speed Wind Dir Waves Ship Positions

Pilot No. 4

Owner: P E P Inc, FORT LAUDERDALE, FL. More information available from US FCC via Universal Licensing System and Coast Guard Vessel Documentation Center.

Last reported at 2014-Dec-21 01:33 UTC. Time now 2014-Dec-21 01:52 UTC.
Position N 26°06' W 080°07'.

MMSI: 495270931.

Date/timePositionNaut miles runAvg speedWind from/ knotsBaromVisibWave heightAir tempDewpointWater temp
2014-Dec-21 01:33N 26°06' W 080°07'1 0.7
2014-Dec-21 00:34N 26°06' W 080°07'1 0.7
2014-Dec-20 23:33N 26°06' W 080°07'2 1.8
2014-Dec-20 22:33N 26°06' W 080°05'1 1.3
2014-Dec-20 21:33N 26°05' W 080°07'2 0.2
2014-Dec-20 11:33N 26°06' W 080°05'2 1.9
2014-Dec-20 10:33N 26°05' W 080°07'3 2.9
2014-Dec-20 09:34N 26°06' W 080°04'1 1.2
2014-Dec-20 08:33N 26°06' W 080°03'4 3.8
2014-Dec-20 07:33N 26°06' W 080°07'0 0.1
2014-Dec-20 05:33N 26°05' W 080°07'2 1.7
2014-Dec-20 04:33N 26°06' W 080°05'2 1.7
2014-Dec-20 03:26N 26°06' W 080°07'4 4.9
2014-Dec-20 02:33N 26°06' W 080°03'3 2.8
2014-Dec-20 01:33N 26°06' W 080°06'2 1.7
2014-Dec-20 00:33N 26°05' W 080°04'1 0.8
2014-Dec-19 23:33N 26°06' W 080°04'3 2.9
2014-Dec-19 22:34N 26°05' W 080°07'2 1.6
2014-Dec-19 21:33N 26°06' W 080°05'1 0.1
2014-Dec-19 11:32N 26°06' W 080°07'1 0.6
2014-Dec-19 10:33N 26°05' W 080°07'3 3.3
2014-Dec-19 09:33N 26°06' W 080°03'2 0.8
2014-Dec-19 06:33N 26°06' W 080°06'1 0.7
2014-Dec-19 05:33N 26°06' W 080°07'0 0.1
2014-Dec-19 02:33N 26°06' W 080°07'1 0.5
2014-Dec-19 01:33N 26°06' W 080°07'0 0.0
2014-Dec-19 00:33N 26°06' W 080°07'1 1.3
2014-Dec-18 23:33N 26°06' W 080°06'1 0.9
2014-Dec-18 22:33N 26°05' W 080°07'1 0.9
2014-Dec-18 21:33N 26°06' W 080°06'1 1.3
2014-Dec-18 20:33N 26°06' W 080°07'0 0.0
2014-Dec-18 19:33N 26°06' W 080°07'0 0.0
2014-Dec-18 18:33N 26°06' W 080°07'0 0.0
2014-Dec-18 17:33N 26°06' W 080°07'0 0.0
2014-Dec-18 16:34N 26°06' W 080°07'0 0.0
2014-Dec-18 15:33N 26°06' W 080°07'0 0.0
2014-Dec-18 14:34N 26°06' W 080°07'1 0.6
2014-Dec-18 13:33N 26°06' W 080°07'0 0.4
2014-Dec-18 12:33N 26°05' W 080°07'0 0.0
2014-Dec-16 12:33N 26°06' W 080°07'1 0.1
2014-Dec-16 03:04N 26°06' W 080°07'1 1.2
2014-Dec-16 02:33N 26°05' W 080°07'1 0.4
2014-Dec-16 01:24N 26°06' W 080°07'3 3.6
2014-Dec-16 00:33N 26°06' W 080°04'3 3.1
2014-Dec-15 23:33N 26°05' W 080°07'0 0.4
2014-Dec-15 22:33N 26°05' W 080°07'0 0.4
2014-Dec-15 21:33N 26°06' W 080°07'0 0.2
2014-Dec-15 20:33N 26°06' W 080°07'0 0.0
2014-Dec-15 11:11N 26°06' W 080°07'4 6.1
2014-Dec-15 10:33N 26°05' W 080°03'4 4.1
2014-Dec-15 09:33N 26°06' W 080°07'0 0.0
2014-Dec-15 08:33N 26°06' W 080°07'0 0.0
2014-Dec-15 07:33N 26°06' W 080°07'1 0.9
2014-Dec-15 06:33N 26°05' W 080°07'1 0.1
2014-Dec-14 23:27N 26°06' W 080°07'1 0.9
2014-Dec-14 22:33N 26°05' W 080°07'1 1.4
2014-Dec-14 21:34N 26°06' W 080°05'1 1.5
2014-Dec-14 20:33N 26°05' W 080°07'2 2.1
2014-Dec-14 19:34N 26°05' W 080°05'3 1.9
2014-Dec-14 18:10N 26°06' W 080°07'0 0.3
2014-Dec-14 16:33N 26°06' W 080°07'3 2.8
2014-Dec-14 15:33N 26°05' W 080°04'3 2.8
2014-Dec-14 14:33N 26°06' W 080°07'2 1.5
2014-Dec-14 13:33N 26°06' W 080°05'2 1.3
2014-Dec-14 12:08N 26°06' W 080°07'2 2.8
2014-Dec-14 11:33N 26°06' W 080°06'1 0.9
2014-Dec-14 10:33N 26°06' W 080°05'3 2.6
2014-Dec-14 09:34N 26°04' W 080°02'5 5.0
2014-Dec-14 08:33N 26°06' W 080°07'1 1.0
2014-Dec-14 07:33N 26°06' W 080°06'1 0.2
2014-Dec-14 03:33N 26°06' W 080°07'0 0.4
2014-Dec-14 02:32N 26°05' W 080°07'2 1.6
2014-Dec-14 01:33N 26°05' W 080°05'1 1.3
2014-Dec-14 00:33N 26°05' W 080°07'0 0.1
2014-Dec-13 23:33N 26°05' W 080°07'1 0.6
2014-Dec-13 22:31N 26°06' W 080°07'1 1.2
2014-Dec-13 21:33N 26°06' W 080°06'1 0.2
2014-Dec-13 15:04N 26°06' W 080°07'1 0.9
2014-Dec-13 14:26N 26°06' W 080°07'2 2.8
2014-Dec-13 13:33N 26°06' W 080°05'2 2.2
2014-Dec-13 12:33N 26°06' W 080°07'0 0.1
2014-Dec-13 11:33N 26°06' W 080°07'2 2.4
2014-Dec-13 10:33N 26°06' W 080°04'3 2.8
2014-Dec-13 09:34N 26°05' W 080°01'2 0.3
2014-Dec-13 03:34N 26°06' W 080°03'4 3.8
2014-Dec-13 02:33N 26°06' W 080°07'1 0.5
2014-Dec-13 01:21N 26°06' W 080°07'1 1.3
2014-Dec-13 00:33N 26°06' W 080°06'0 0.4
2014-Dec-12 23:33N 26°06' W 080°07'2 1.8
2014-Dec-12 22:33N 26°06' W 080°05'1 1.3
2014-Dec-12 21:33N 26°06' W 080°06'1 0.2
2014-Dec-12 18:33N 26°06' W 080°07'0 0.1
2014-Dec-12 17:33N 26°06' W 080°07'1 0.5
2014-Dec-12 16:11N 26°06' W 080°07'3 4.1
2014-Dec-12 15:33N 26°07' W 080°05'2 2.1
2014-Dec-12 14:33N 26°06' W 080°06'4 1.2
2014-Dec-12 11:34N 26°05' W 080°03'4 3.8
2014-Dec-12 10:33N 26°05' W 080°07'1 1.0
2014-Dec-12 09:33N 26°06' W 080°07'2 1.8
2014-Dec-12 08:33N 26°06' W 080°05'  
Track history (hours):
 
Tides and Currents Weather Stations Pressure Air Temp Water Temp Dewpoint Dewpoint Depression Visibility Wind Speed Wind Dir Waves Ship Positions

Pilot No. 4

Owner: P E P Inc, FORT LAUDERDALE, FL. More information available from US FCC via Universal Licensing System and Coast Guard Vessel Documentation Center.

Last reported at 2014-Dec-21 01:33 UTC. Time now 2014-Dec-21 01:52 UTC.
Position N 26°06' W 080°07'.

MMSI: 495270931.

Date/timePositionNaut miles runAvg speedWind from/ knotsBaromVisibWave heightAir tempDewpointWater temp
2014-Dec-21 01:33N 26°06' W 080°07'1 0.7
2014-Dec-21 00:34N 26°06' W 080°07'1 0.7
2014-Dec-20 23:33N 26°06' W 080°07'2 1.8
2014-Dec-20 22:33N 26°06' W 080°05'1 1.3
2014-Dec-20 21:33N 26°05' W 080°07'2 0.2
2014-Dec-20 11:33N 26°06' W 080°05'2 1.9
2014-Dec-20 10:33N 26°05' W 080°07'3 2.9
2014-Dec-20 09:34N 26°06' W 080°04'1 1.2
2014-Dec-20 08:33N 26°06' W 080°03'4 3.8
2014-Dec-20 07:33N 26°06' W 080°07'0 0.1
2014-Dec-20 05:33N 26°05' W 080°07'2 1.7
2014-Dec-20 04:33N 26°06' W 080°05'2 1.7
2014-Dec-20 03:26N 26°06' W 080°07'4 4.9
2014-Dec-20 02:33N 26°06' W 080°03'3 2.8
2014-Dec-20 01:33N 26°06' W 080°06'2 1.7
2014-Dec-20 00:33N 26°05' W 080°04'1 0.8
2014-Dec-19 23:33N 26°06' W 080°04'3 2.9
2014-Dec-19 22:34N 26°05' W 080°07'2 1.6
2014-Dec-19 21:33N 26°06' W 080°05'1 0.1
2014-Dec-19 11:32N 26°06' W 080°07'1 0.6
2014-Dec-19 10:33N 26°05' W 080°07'3 3.3
2014-Dec-19 09:33N 26°06' W 080°03'2 0.8
2014-Dec-19 06:33N 26°06' W 080°06'1 0.7
2014-Dec-19 05:33N 26°06' W 080°07'0 0.1
2014-Dec-19 02:33N 26°06' W 080°07'1 0.5
2014-Dec-19 01:33N 26°06' W 080°07'0 0.0
2014-Dec-19 00:33N 26°06' W 080°07'1 1.3
2014-Dec-18 23:33N 26°06' W 080°06'1 0.9
2014-Dec-18 22:33N 26°05' W 080°07'1 0.9
2014-Dec-18 21:33N 26°06' W 080°06'1 1.3
2014-Dec-18 20:33N 26°06' W 080°07'0 0.0
2014-Dec-18 19:33N 26°06' W 080°07'0 0.0
2014-Dec-18 18:33N 26°06' W 080°07'0 0.0
2014-Dec-18 17:33N 26°06' W 080°07'0 0.0
2014-Dec-18 16:34N 26°06' W 080°07'0 0.0
2014-Dec-18 15:33N 26°06' W 080°07'0 0.0
2014-Dec-18 14:34N 26°06' W 080°07'1 0.6
2014-Dec-18 13:33N 26°06' W 080°07'0 0.4
2014-Dec-18 12:33N 26°05' W 080°07'0 0.0
2014-Dec-16 12:33N 26°06' W 080°07'1 0.1
2014-Dec-16 03:04N 26°06' W 080°07'1 1.2
2014-Dec-16 02:33N 26°05' W 080°07'1 0.4
2014-Dec-16 01:24N 26°06' W 080°07'3 3.6
2014-Dec-16 00:33N 26°06' W 080°04'3 3.1
2014-Dec-15 23:33N 26°05' W 080°07'0 0.4
2014-Dec-15 22:33N 26°05' W 080°07'0 0.4
2014-Dec-15 21:33N 26°06' W 080°07'0 0.2
2014-Dec-15 20:33N 26°06' W 080°07'0 0.0
2014-Dec-15 11:11N 26°06' W 080°07'4 6.1
2014-Dec-15 10:33N 26°05' W 080°03'4 4.1
2014-Dec-15 09:33N 26°06' W 080°07'0 0.0
2014-Dec-15 08:33N 26°06' W 080°07'0 0.0
2014-Dec-15 07:33N 26°06' W 080°07'1 0.9
2014-Dec-15 06:33N 26°05' W 080°07'1 0.1
2014-Dec-14 23:27N 26°06' W 080°07'1 0.9
2014-Dec-14 22:33N 26°05' W 080°07'1 1.4
2014-Dec-14 21:34N 26°06' W 080°05'1 1.5
2014-Dec-14 20:33N 26°05' W 080°07'2 2.1
2014-Dec-14 19:34N 26°05' W 080°05'3 1.9
2014-Dec-14 18:10N 26°06' W 080°07'0 0.3
2014-Dec-14 16:33N 26°06' W 080°07'3 2.8
2014-Dec-14 15:33N 26°05' W 080°04'3 2.8
2014-Dec-14 14:33N 26°06' W 080°07'2 1.5
2014-Dec-14 13:33N 26°06' W 080°05'2 1.3
2014-Dec-14 12:08N 26°06' W 080°07'2 2.8
2014-Dec-14 11:33N 26°06' W 080°06'1 0.9
2014-Dec-14 10:33N 26°06' W 080°05'3 2.6
2014-Dec-14 09:34N 26°04' W 080°02'5 5.0
2014-Dec-14 08:33N 26°06' W 080°07'1 1.0
2014-Dec-14 07:33N 26°06' W 080°06'1 0.2
2014-Dec-14 03:33N 26°06' W 080°07'0 0.4
2014-Dec-14 02:32N 26°05' W 080°07'2 1.6
2014-Dec-14 01:33N 26°05' W 080°05'1 1.3
2014-Dec-14 00:33N 26°05' W 080°07'0 0.1
2014-Dec-13 23:33N 26°05' W 080°07'1 0.6
2014-Dec-13 22:31N 26°06' W 080°07'1 1.2
2014-Dec-13 21:33N 26°06' W 080°06'1 0.2
2014-Dec-13 15:04N 26°06' W 080°07'1 0.9
2014-Dec-13 14:26N 26°06' W 080°07'2 2.8
2014-Dec-13 13:33N 26°06' W 080°05'2 2.2
2014-Dec-13 12:33N 26°06' W 080°07'0 0.1
2014-Dec-13 11:33N 26°06' W 080°07'2 2.4
2014-Dec-13 10:33N 26°06' W 080°04'3 2.8
2014-Dec-13 09:34N 26°05' W 080°01'2 0.3
2014-Dec-13 03:34N 26°06' W 080°03'4 3.8
2014-Dec-13 02:33N 26°06' W 080°07'1 0.5
2014-Dec-13 01:21N 26°06' W 080°07'1 1.3
2014-Dec-13 00:33N 26°06' W 080°06'0 0.4
2014-Dec-12 23:33N 26°06' W 080°07'2 1.8
2014-Dec-12 22:33N 26°06' W 080°05'1 1.3
2014-Dec-12 21:33N 26°06' W 080°06'1 0.2
2014-Dec-12 18:33N 26°06' W 080°07'0 0.1
2014-Dec-12 17:33N 26°06' W 080°07'1 0.5
2014-Dec-12 16:11N 26°06' W 080°07'3 4.1
2014-Dec-12 15:33N 26°07' W 080°05'2 2.1
2014-Dec-12 14:33N 26°06' W 080°06'4 1.2
2014-Dec-12 11:34N 26°05' W 080°03'4 3.8
2014-Dec-12 10:33N 26°05' W 080°07'1 1.0
2014-Dec-12 09:33N 26°06' W 080°07'2 1.8
2014-Dec-12 08:33N 26°06' W 080°05'  

Dump ship's entire track history